createdAt,value
2022-08-05T00:01:48.970Z,25.42
2022-08-05T00:04:18.803Z,25.29
2022-08-05T00:06:51.559Z,25.22
2022-08-05T00:09:20.422Z,25.78
2022-08-05T00:11:56.204Z,26.00
2022-08-05T00:14:29.128Z,25.79
2022-08-05T00:16:58.349Z,24.45
2022-08-05T00:19:33.421Z,24.54
2022-08-05T00:22:11.294Z,25.21
2022-08-05T00:24:42.434Z,24.44
2022-08-05T00:27:28.552Z,24.03
2022-08-05T00:30:00.736Z,24.39
2022-08-05T00:32:31.831Z,24.40
2022-08-05T00:35:07.548Z,24.23
2022-08-05T00:37:53.482Z,24.25
2022-08-05T00:40:28.397Z,24.33
2022-08-05T00:43:00.804Z,24.96
2022-08-05T00:45:43.096Z,24.43
2022-08-05T00:48:13.565Z,24.81
2022-08-05T00:50:44.218Z,23.59
2022-08-05T00:54:00.224Z,23.79
2022-08-05T00:56:04.756Z,23.63
2022-08-05T00:58:34.377Z,23.15
2022-08-05T01:01:02.733Z,23.78
2022-08-05T01:03:37.159Z,23.30
2022-08-05T01:06:06.418Z,22.79
2022-08-05T01:08:44.564Z,22.54
2022-08-05T01:11:22.348Z,21.80
2022-08-05T01:14:08.815Z,22.81
2022-08-05T01:16:48.469Z,22.56
2022-08-05T01:19:56.072Z,22.19
2022-08-05T01:22:47.071Z,22.05
2022-08-05T01:25:53.686Z,23.53
2022-08-05T01:28:33.872Z,24.36
2022-08-05T01:31:10.260Z,25.02
2022-08-05T01:33:49.165Z,23.40
2022-08-05T01:36:21.521Z,22.11
2022-08-05T01:39:00.400Z,22.82
2022-08-05T01:41:35.642Z,23.42
2022-08-05T01:44:09.939Z,23.17
2022-08-05T01:46:46.402Z,23.01
2022-08-05T01:49:24.155Z,22.04
2022-08-05T01:51:59.493Z,22.86
2022-08-05T01:54:46.157Z,21.68
2022-08-05T01:58:09.314Z,20.89
2022-08-05T02:00:12.379Z,21.23
2022-08-05T02:02:54.724Z,22.40
2022-08-05T02:05:37.870Z,22.63
2022-08-05T02:08:11.036Z,22.55
2022-08-05T02:10:45.694Z,22.95
2022-08-05T02:13:19.918Z,22.83
2022-08-05T02:16:01.032Z,22.63
2022-08-05T02:18:37.171Z,22.74
2022-08-05T02:21:15.552Z,23.12
2022-08-05T02:23:48.382Z,23.89
2022-08-05T02:26:23.196Z,22.88
2022-08-05T02:28:58.275Z,23.15
2022-08-05T02:31:34.893Z,23.63
2022-08-05T02:34:09.324Z,22.35
2022-08-05T02:36:43.613Z,21.63
2022-08-05T02:39:14.206Z,22.52
2022-08-05T02:42:00.849Z,23.33
2022-08-05T02:44:32.920Z,24.17
2022-08-05T02:47:03.775Z,24.22
2022-08-05T02:49:37.746Z,24.02
2022-08-05T02:52:30.013Z,24.49
2022-08-05T02:55:01.884Z,23.92
2022-08-05T02:58:09.336Z,23.75
2022-08-05T03:00:25.568Z,22.82
2022-08-05T03:02:59.516Z,20.70
2022-08-05T03:06:54.544Z,19.76
2022-08-05T03:08:19.595Z,20.74
2022-08-05T03:11:53.113Z,21.57
2022-08-05T03:13:51.707Z,21.00
2022-08-05T03:16:31.630Z,20.02
2022-08-05T03:19:01.563Z,19.08
2022-08-05T03:21:41.399Z,19.68
2022-08-05T03:24:18.427Z,20.61
2022-08-05T03:26:59.307Z,21.45
2022-08-05T03:29:45.990Z,20.35
2022-08-05T03:32:17.211Z,21.91
2022-08-05T03:34:51.237Z,22.87
2022-08-05T03:37:22.638Z,23.23
2022-08-05T03:40:03.865Z,23.64
2022-08-05T03:42:51.414Z,23.18
2022-08-05T03:45:22.353Z,23.54
2022-08-05T03:47:52.024Z,23.81
2022-08-05T03:50:30.176Z,23.52
2022-08-05T03:55:52.579Z,24.11
2022-08-05T03:56:17.114Z,24.47
2022-08-05T03:58:51.134Z,24.10
2022-08-05T04:01:22.304Z,24.56
2022-08-05T04:04:09.446Z,24.86
2022-08-05T04:06:47.403Z,24.53
2022-08-05T04:09:26.194Z,23.90
2022-08-05T04:11:56.272Z,24.43
2022-08-05T04:14:30.115Z,24.85
2022-08-05T04:17:02.931Z,25.12
2022-08-05T04:19:32.080Z,25.16
2022-08-05T04:22:08.589Z,24.27
2022-08-05T04:24:44.365Z,23.89
2022-08-05T04:27:15.192Z,22.65
2022-08-05T04:29:44.089Z,22.41
2022-08-05T04:32:13.711Z,23.00
2022-08-05T04:34:48.198Z,24.10
2022-08-05T04:37:17.876Z,23.53
2022-08-05T04:39:46.202Z,23.50
2022-08-05T04:42:21.414Z,23.84
2022-08-05T04:44:53.820Z,23.99
2022-08-05T04:47:24.074Z,23.66
2022-08-05T04:50:01.701Z,23.20
2022-08-05T04:52:36.379Z,22.46
2022-08-05T04:55:14.784Z,21.55
2022-08-05T04:57:47.881Z,21.65
2022-08-05T05:00:17.597Z,21.45
2022-08-05T05:02:45.945Z,20.65
2022-08-05T05:05:26.196Z,20.48
2022-08-05T05:08:02.584Z,22.01
2022-08-05T05:10:33.178Z,23.23
2022-08-05T05:13:04.041Z,23.99
2022-08-05T05:15:56.252Z,24.43
2022-08-05T05:18:31.333Z,23.87
2022-08-05T05:21:04.130Z,23.68
2022-08-05T05:24:02.111Z,24.25
2022-08-05T05:26:28.768Z,24.32
2022-08-05T05:29:02.297Z,23.19
2022-08-05T05:34:01.990Z,23.44
2022-08-05T05:36:31.773Z,23.14
2022-08-05T05:39:03.856Z,22.88
2022-08-05T05:41:40.486Z,22.43
2022-08-05T05:44:15.728Z,23.23
2022-08-05T05:47:04.152Z,21.22
2022-08-05T05:49:33.423Z,20.28
2022-08-05T05:52:05.954Z,21.19
2022-08-05T05:54:50.070Z,20.95
2022-08-05T05:57:19.512Z,22.63
2022-08-05T05:59:48.763Z,22.06
2022-08-05T06:02:27.946Z,21.23
2022-08-05T06:05:10.372Z,20.89
2022-08-05T06:07:57.961Z,20.69
2022-08-05T06:10:36.519Z,21.85
2022-08-05T06:13:06.096Z,21.33
2022-08-05T06:16:30.952Z,21.42
2022-08-05T06:18:31.351Z,21.96
2022-08-05T06:21:00.712Z,21.48
2022-08-05T06:23:32.156Z,21.44
2022-08-05T06:26:21.691Z,19.33
2022-08-05T06:28:53.309Z,19.26
2022-08-05T06:31:22.034Z,20.32
2022-08-05T06:34:07.510Z,20.85
2022-08-05T06:36:56.813Z,19.78
2022-08-05T06:39:27.169Z,20.55
2022-08-05T06:41:58.820Z,20.30
2022-08-05T06:44:28.136Z,20.22
2022-08-05T06:46:57.150Z,20.36
2022-08-05T06:50:01.730Z,19.56
2022-08-05T06:52:37.806Z,19.74
2022-08-05T06:55:02.456Z,21.02
2022-08-05T06:58:03.751Z,21.29
2022-08-05T07:00:22.424Z,20.56
2022-08-05T07:02:54.300Z,21.44
2022-08-05T07:05:37.480Z,19.97
2022-08-05T07:08:10.959Z,20.78
2022-08-05T07:10:52.719Z,22.77
2022-08-05T07:13:57.947Z,21.76
2022-08-05T07:17:57.334Z,22.32
2022-08-05T07:22:28.215Z,19.60
2022-08-05T07:25:23.118Z,19.58
2022-08-05T07:27:57.337Z,20.32
2022-08-05T07:30:33.790Z,20.51
2022-08-05T07:33:05.464Z,20.13
2022-08-05T07:36:02.606Z,20.74
2022-08-05T07:38:33.775Z,20.22
2022-08-05T07:42:07.743Z,20.78
2022-08-05T07:43:57.057Z,21.70
2022-08-05T07:46:29.287Z,19.67
2022-08-05T07:49:05.358Z,20.40
2022-08-05T07:51:41.079Z,19.67
2022-08-05T07:54:23.106Z,18.80
2022-08-05T07:57:01.810Z,19.85
2022-08-05T07:59:43.351Z,19.96
2022-08-05T08:02:17.858Z,20.25
2022-08-05T08:04:48.614Z,20.18
2022-08-05T08:07:22.262Z,19.63
2022-08-05T08:09:55.149Z,19.77
2022-08-05T08:12:37.547Z,19.35
2022-08-05T08:15:15.140Z,20.75
2022-08-05T08:17:50.806Z,21.88
2022-08-05T08:21:00.187Z,19.29
2022-08-05T08:24:01.070Z,20.70
2022-08-05T08:26:02.681Z,19.23
2022-08-05T08:28:36.292Z,20.21
2022-08-05T08:31:07.282Z,20.24
2022-08-05T08:33:38.316Z,20.54
2022-08-05T08:36:38.305Z,20.72
2022-08-05T08:38:57.502Z,21.28
2022-08-05T08:41:51.360Z,22.21
2022-08-05T08:45:21.421Z,20.19
2022-08-05T08:47:46.879Z,21.13
2022-08-05T08:50:12.881Z,21.06
2022-08-05T08:52:55.858Z,21.20
2022-08-05T08:56:02.947Z,21.56
2022-08-05T08:58:16.086Z,23.02
2022-08-05T09:00:44.715Z,23.19
2022-08-05T09:03:16.214Z,22.62
2022-08-05T09:06:08.557Z,21.69
2022-08-05T09:08:40.320Z,23.02
2022-08-05T09:11:13.648Z,23.31
2022-08-05T09:14:09.361Z,23.37
2022-08-05T09:16:32.395Z,22.99
2022-08-05T09:19:00.814Z,23.01
2022-08-05T09:22:21.772Z,22.58
2022-08-05T09:24:24.987Z,22.59
2022-08-05T09:26:57.274Z,22.97
2022-08-05T09:29:47.762Z,22.42
2022-08-05T09:32:43.067Z,22.80
2022-08-05T09:35:26.545Z,22.32
2022-08-05T09:38:16.199Z,21.85
2022-08-05T09:40:53.737Z,21.74
2022-08-05T09:43:41.024Z,22.24
2022-08-05T09:46:28.326Z,22.16
2022-08-05T09:49:07.345Z,22.38
2022-08-05T09:51:48.758Z,23.10
2022-08-05T09:54:32.040Z,22.57
2022-08-05T09:57:01.182Z,22.20
2022-08-05T09:59:35.159Z,21.89
2022-08-05T10:02:06.244Z,21.64
2022-08-05T10:04:40.995Z,22.16
2022-08-05T10:07:25.043Z,21.45
2022-08-05T10:10:04.255Z,22.08
2022-08-05T10:12:49.848Z,22.44
2022-08-05T10:15:22.877Z,23.15
2022-08-05T10:18:16.665Z,22.99
2022-08-05T10:20:48.774Z,23.62
2022-08-05T10:23:34.617Z,22.95
2022-08-05T10:26:14.521Z,23.13
2022-08-05T10:28:45.016Z,22.59
2022-08-05T10:32:55.766Z,23.33
2022-08-05T10:34:07.193Z,23.17
2022-08-05T10:36:38.495Z,22.81
2022-08-05T10:39:24.341Z,22.80
2022-08-05T10:42:13.316Z,23.20
2022-08-05T10:44:46.797Z,22.25
2022-08-05T10:47:26.770Z,22.31
2022-08-05T10:50:32.088Z,22.38
2022-08-05T10:53:00.252Z,22.85
2022-08-05T10:55:30.544Z,22.61
2022-08-05T10:58:15.675Z,22.49
2022-08-05T11:00:48.574Z,22.72
2022-08-05T11:03:26.917Z,23.03
2022-08-05T11:06:15.692Z,23.14
2022-08-05T11:09:39.130Z,23.97
2022-08-05T11:12:50.358Z,24.01
2022-08-05T11:15:59.394Z,23.39
2022-08-05T11:18:29.617Z,23.12
2022-08-05T11:20:59.096Z,23.00
2022-08-05T11:24:04.886Z,22.55
2022-08-05T11:26:28.439Z,22.98
2022-08-05T11:29:02.376Z,23.39
2022-08-05T11:31:54.334Z,23.08
2022-08-05T11:34:38.989Z,22.98
2022-08-05T11:38:28.945Z,23.25
2022-08-05T11:40:03.071Z,23.09
2022-08-05T11:42:37.869Z,23.73
2022-08-05T11:45:14.220Z,23.50
2022-08-05T11:47:54.510Z,22.74
2022-08-05T11:50:23.613Z,22.76
2022-08-05T11:52:57.642Z,23.28
2022-08-05T11:55:32.340Z,23.73
2022-08-05T11:58:10.356Z,24.27
2022-08-05T12:00:44.370Z,24.19
2022-08-05T12:03:29.436Z,23.41
2022-08-05T12:06:05.996Z,24.05
2022-08-05T12:08:49.836Z,23.70
2022-08-05T12:11:21.561Z,23.75
2022-08-05T12:13:58.753Z,23.78
2022-08-05T12:16:38.548Z,23.14
2022-08-05T12:19:11.045Z,23.19
2022-08-05T12:21:59.319Z,23.51
2022-08-05T12:24:29.973Z,24.03
2022-08-05T12:26:58.677Z,24.74
2022-08-05T12:29:29.030Z,24.87
2022-08-05T12:32:09.595Z,24.86
2022-08-05T12:34:40.016Z,25.03
2022-08-05T12:37:17.575Z,25.10
2022-08-05T12:39:54.009Z,23.98
2022-08-05T12:42:25.409Z,23.71
2022-08-05T12:44:53.814Z,23.59
2022-08-05T12:47:31.012Z,23.45
2022-08-05T12:50:06.266Z,23.71
2022-08-05T12:52:39.107Z,23.59
2022-08-05T12:55:25.339Z,23.18
2022-08-05T12:58:48.950Z,23.22
2022-08-05T13:02:01.159Z,23.17
2022-08-05T13:03:41.822Z,23.20
2022-08-05T13:06:17.195Z,23.42
2022-08-05T13:08:52.164Z,22.90
2022-08-05T13:11:35.085Z,23.28
2022-08-05T13:14:24.870Z,22.74
2022-08-05T13:17:10.923Z,23.00
2022-08-05T13:19:51.722Z,22.87
2022-08-05T13:22:28.380Z,23.21
2022-08-05T13:25:00.826Z,22.68
2022-08-05T13:27:38.855Z,23.24
2022-08-05T13:30:34.597Z,23.32
2022-08-05T13:33:01.193Z,23.47
2022-08-05T13:35:43.365Z,23.72
2022-08-05T13:38:30.497Z,23.87
2022-08-05T13:41:04.977Z,22.69
2022-08-05T13:43:43.400Z,22.51
2022-08-05T13:46:16.354Z,22.72
2022-08-05T13:49:00.923Z,22.70
2022-08-05T13:51:40.071Z,22.11
2022-08-05T13:54:11.744Z,22.62
2022-08-05T13:56:45.252Z,22.82
2022-08-05T13:59:24.794Z,22.81
2022-08-05T14:01:57.589Z,22.88
2022-08-05T14:04:49.160Z,23.24
2022-08-05T14:07:25.578Z,23.95
2022-08-05T14:10:11.689Z,24.30
2022-08-05T14:12:40.197Z,23.98
2022-08-05T14:16:07.404Z,24.30
2022-08-05T14:18:01.152Z,24.26
2022-08-05T14:20:30.752Z,24.51
2022-08-05T14:22:59.353Z,24.34
2022-08-05T14:25:30.273Z,24.71
2022-08-05T14:27:59.135Z,24.74
2022-08-05T14:30:28.392Z,24.37
2022-08-05T14:32:58.747Z,24.43
2022-08-05T14:35:36.251Z,23.69
2022-08-05T14:38:05.937Z,23.67
2022-08-05T14:40:56.269Z,23.35
2022-08-05T14:44:01.570Z,23.33
2022-08-05T14:46:13.364Z,22.83
2022-08-05T14:48:41.620Z,23.03
2022-08-05T14:51:11.239Z,23.70
2022-08-05T14:53:44.940Z,24.11
2022-08-05T14:56:14.794Z,24.05
2022-08-05T14:58:53.166Z,24.25
2022-08-05T15:01:47.858Z,24.58
2022-08-05T15:04:11.823Z,24.11
2022-08-05T15:06:40.537Z,24.00
2022-08-05T15:09:08.964Z,23.26
2022-08-05T15:11:52.793Z,23.26
2022-08-05T15:14:34.963Z,23.80
2022-08-05T15:17:44.317Z,23.79
2022-08-05T15:19:59.020Z,23.67
2022-08-05T15:22:28.051Z,24.05
2022-08-05T15:24:58.997Z,23.59
2022-08-05T15:27:31.997Z,23.16
2022-08-05T15:30:00.676Z,23.12
2022-08-05T15:32:29.121Z,22.93
2022-08-05T15:34:57.720Z,22.94
2022-08-05T15:38:33.440Z,23.12
2022-08-05T15:41:04.709Z,22.75
2022-08-05T15:43:12.700Z,22.58
2022-08-05T15:46:00.066Z,22.53
2022-08-05T15:48:30.673Z,22.26
2022-08-05T15:51:01.026Z,22.76
2022-08-05T15:53:38.389Z,22.69
2022-08-05T15:56:19.350Z,22.50
2022-08-05T15:58:49.356Z,22.54
2022-08-05T16:01:19.986Z,23.03
2022-08-05T16:03:50.907Z,22.56
2022-08-05T16:06:22.760Z,22.76
2022-08-05T16:08:55.349Z,22.88
2022-08-05T16:11:40.005Z,23.21
2022-08-05T16:14:10.139Z,23.20
2022-08-05T16:16:47.202Z,23.30
2022-08-05T16:19:19.243Z,23.61
2022-08-05T16:22:04.279Z,23.22
2022-08-05T16:24:39.962Z,23.14
2022-08-05T16:27:16.062Z,22.90
2022-08-05T16:29:50.313Z,23.42
2022-08-05T16:32:23.220Z,23.27
2022-08-05T16:34:56.918Z,22.92
2022-08-05T16:38:02.683Z,23.00
2022-08-05T16:40:28.869Z,23.17
2022-08-05T16:42:58.333Z,22.97
2022-08-05T16:46:05.897Z,23.08
2022-08-05T16:48:25.617Z,23.39
2022-08-05T16:50:55.316Z,22.97
2022-08-05T16:53:32.470Z,22.62
2022-08-05T16:56:12.094Z,22.59
2022-08-05T16:58:40.820Z,23.03
2022-08-05T17:01:11.179Z,23.13
2022-08-05T17:03:39.597Z,22.81
2022-08-05T17:06:08.905Z,23.04
2022-08-05T17:08:53.190Z,22.59
2022-08-05T17:11:23.366Z,22.65
2022-08-05T17:14:00.614Z,22.70
2022-08-05T17:16:37.160Z,22.71
2022-08-05T17:19:09.359Z,22.98
2022-08-05T17:21:39.601Z,22.62
2022-08-05T17:24:19.477Z,22.56
2022-08-05T17:26:58.253Z,22.32
2022-08-05T17:29:33.324Z,22.51
2022-08-05T17:32:11.337Z,22.25
2022-08-05T17:34:47.707Z,22.17
2022-08-05T17:37:39.508Z,22.25
2022-08-05T17:40:12.331Z,22.31
2022-08-05T17:42:50.911Z,22.31
2022-08-05T17:45:22.213Z,22.63
2022-08-05T17:47:55.890Z,22.62
2022-08-05T17:50:28.733Z,22.47
2022-08-05T17:53:00.958Z,22.34
2022-08-05T17:55:37.549Z,22.11
2022-08-05T17:58:09.650Z,22.11
2022-08-05T18:00:44.686Z,22.09
2022-08-05T18:03:48.517Z,22.15
2022-08-05T18:06:11.829Z,21.68
2022-08-05T18:08:46.195Z,21.96
2022-08-05T18:11:24.165Z,21.99
2022-08-05T18:14:03.547Z,21.51
2022-08-05T18:16:33.146Z,21.68
2022-08-05T18:19:03.667Z,21.78
2022-08-05T18:22:07.569Z,21.65
2022-08-05T18:24:20.960Z,21.52
2022-08-05T18:26:49.500Z,21.89
2022-08-05T18:29:17.771Z,22.02
2022-08-05T18:32:07.250Z,21.81
2022-08-05T18:34:42.945Z,21.82
2022-08-05T18:37:12.178Z,21.79
2022-08-05T18:40:31.689Z,21.87
2022-08-05T18:42:29.620Z,21.77
2022-08-05T18:44:57.956Z,21.93
2022-08-05T18:47:28.451Z,21.91
2022-08-05T18:50:18.492Z,21.62
2022-08-05T18:52:51.093Z,22.22
2022-08-05T18:55:22.269Z,22.10
2022-08-05T18:57:53.950Z,21.42
2022-08-05T19:00:27.252Z,21.27
2022-08-05T19:03:03.622Z,21.48
2022-08-05T19:06:12.843Z,20.60
2022-08-05T19:08:30.529Z,20.81
2022-08-05T19:11:02.824Z,20.94
2022-08-05T19:13:36.126Z,20.79
2022-08-05T19:16:24.555Z,20.69
2022-08-05T19:18:56.723Z,20.98
2022-08-05T19:21:27.383Z,21.29
2022-08-05T19:24:06.877Z,20.90
2022-08-05T19:26:43.939Z,21.31
2022-08-05T19:29:26.823Z,21.07
2022-08-05T19:32:08.529Z,21.07
2022-08-05T19:34:39.689Z,21.06
2022-08-05T19:37:10.999Z,21.00
2022-08-05T19:39:45.922Z,20.91
2022-08-05T19:42:19.646Z,20.66
2022-08-05T19:45:06.097Z,20.33
2022-08-05T19:47:37.473Z,20.62
2022-08-05T19:50:12.006Z,20.01
2022-08-05T19:52:42.224Z,19.80
2022-08-05T19:56:15.093Z,20.90
2022-08-05T19:58:28.782Z,20.33
2022-08-05T20:00:53.258Z,20.24
2022-08-05T20:03:21.607Z,20.94
2022-08-05T20:05:51.156Z,20.82
2022-08-05T20:08:24.406Z,20.92
2022-08-05T20:10:53.276Z,20.54
2022-08-05T20:13:30.238Z,20.08
2022-08-05T20:16:11.027Z,20.38
2022-08-05T20:18:39.398Z,19.95
2022-08-05T20:21:09.006Z,20.51
2022-08-05T20:23:51.561Z,19.92
2022-08-05T20:26:24.675Z,19.55
2022-08-05T20:28:57.008Z,20.35
2022-08-05T20:31:36.721Z,19.77
2022-08-05T20:34:11.672Z,20.19
2022-08-05T20:36:43.249Z,20.12
2022-08-05T20:39:16.349Z,19.44
2022-08-05T20:41:46.680Z,20.32
2022-08-05T20:44:30.121Z,20.13
2022-08-05T20:47:00.309Z,20.47
2022-08-05T20:49:29.029Z,20.66
2022-08-05T20:51:58.582Z,20.44
2022-08-05T20:54:43.648Z,20.47
2022-08-05T20:57:24.625Z,21.04
2022-08-05T21:00:36.397Z,19.97
2022-08-05T21:03:06.035Z,20.84
2022-08-05T21:05:47.776Z,20.03
2022-08-05T21:08:28.096Z,20.64
2022-08-05T21:11:09.838Z,18.99
2022-08-05T21:13:48.242Z,19.49
2022-08-05T21:16:30.013Z,19.58
2022-08-05T21:19:00.910Z,19.38
2022-08-05T21:21:43.815Z,19.72
2022-08-05T21:24:15.603Z,18.68
2022-08-05T21:26:53.280Z,19.34
2022-08-05T21:29:31.717Z,19.40
2022-08-05T21:32:02.256Z,19.43
2022-08-05T21:34:31.658Z,19.55
2022-08-05T21:37:01.659Z,19.68
2022-08-05T21:39:30.256Z,19.64
2022-08-05T21:42:04.758Z,20.08
2022-08-05T21:44:33.385Z,20.13
2022-08-05T21:47:02.034Z,19.61
2022-08-05T21:50:00.163Z,19.73
2022-08-05T21:52:28.495Z,19.21
2022-08-05T21:55:06.152Z,19.63
2022-08-05T21:57:42.376Z,19.53
2022-08-05T22:00:13.806Z,18.58
2022-08-05T22:02:43.305Z,18.25
2022-08-05T22:05:12.778Z,18.63
2022-08-05T22:07:58.750Z,18.49
2022-08-05T22:10:28.585Z,19.00
2022-08-05T22:13:09.279Z,19.68
2022-08-05T22:16:01.061Z,19.38
2022-08-05T22:18:36.342Z,19.31
2022-08-05T22:21:18.717Z,19.27
2022-08-05T22:24:12.821Z,19.33
2022-08-05T22:27:16.484Z,19.23
2022-08-05T22:29:46.997Z,19.89
2022-08-05T22:32:17.556Z,20.75
2022-08-05T22:34:46.029Z,20.85
2022-08-05T22:37:14.329Z,21.45
2022-08-05T22:39:42.694Z,21.49
2022-08-05T22:42:15.420Z,21.72
2022-08-05T22:44:56.910Z,20.98
2022-08-05T22:47:28.897Z,21.16
2022-08-05T22:50:20.112Z,21.01
2022-08-05T22:52:48.387Z,20.21
2022-08-05T22:55:19.314Z,20.75
2022-08-05T22:57:49.396Z,20.79
2022-08-05T23:00:21.508Z,20.62
2022-08-05T23:02:51.998Z,21.18
2022-08-05T23:05:22.073Z,21.30
2022-08-05T23:07:51.787Z,21.17
2022-08-05T23:10:20.877Z,21.32
2022-08-05T23:12:54.688Z,21.46
2022-08-05T23:15:28.990Z,21.55
2022-08-05T23:18:01.528Z,21.68
2022-08-05T23:20:32.662Z,21.57
2022-08-05T23:23:05.943Z,21.49
2022-08-05T23:25:51.590Z,21.49
2022-08-05T23:28:22.262Z,20.17
2022-08-05T23:30:54.781Z,20.89
2022-08-05T23:33:26.515Z,21.23
2022-08-05T23:36:13.843Z,21.32
2022-08-05T23:38:43.563Z,21.04
2022-08-05T23:41:12.932Z,21.40
2022-08-05T23:44:05.389Z,21.28
2022-08-05T23:46:31.620Z,21.21
2022-08-05T23:49:02.104Z,21.41
2022-08-05T23:52:01.597Z,21.44
2022-08-05T23:54:36.250Z,21.31
2022-08-05T23:57:05.962Z,21.39
